Sacul, Texas
Current Conditions -  °F | °C
As of 8:15 AM on Monday 20 Oct 2014 (Local Time) from KJSO Reporting Station
Clear Clear  
Wind Chill: 57°   Ceiling: Unl
Heat Index: 57°   Visibility: 10mi
Dew Point: 54°   Wind: 0mph
Humidity: 88%   Direction: NA
Pressure: 30.11"   Gusts: NA
Location:  31.82°N, 94.92°W
Report Text: KJSO 201315Z AUTO 00000KT 10SM CLR 13/12 A3011 RMK AO2 T01400120
Loading
Personal Weather Stations






























Interactive Weather Map
Tropical Storm Tracking
New forecast layout! Learn more

10-Day Weather Forecast

Advertisements
Track Severe Weather on mobile